Time;durP1;ratioP1;P1;durP2;ratioP2;P2;SDS_P1;SDS_P2;PMS_P1;PMS_P2;Temp;Humidity;BMP_temperature;BMP_pressure;BME280_temperature;BME280_humidity;BME280_pressure;Samples;Min_cycle;Max_cycle;Signal;HPM_P1;HPM_P2
2022/11/01 00:00:47;;;;;;;126.93;43.33;;;;;;;12.31;100.00;100818.38;6001985;28;20041;-66
2022/11/01 00:03:43;;;;;;;129.77;39.83;;;;;;;12.28;100.00;100813.38;6002310;28;20101;-68
2022/11/01 00:06:38;;;;;;;123.32;40.55;;;;;;;12.29;100.00;100821.16;6002730;28;20094;-66
2022/11/01 00:09:34;;;;;;;122.33;41.80;;;;;;;12.26;100.00;100823.28;6002318;28;20053;-66
2022/11/01 00:12:30;;;;;;;114.00;39.07;;;;;;;12.25;100.00;100821.66;6001956;28;20081;-67
2022/11/01 00:15:25;;;;;;;116.20;39.70;;;;;;;12.21;100.00;100820.28;6002220;28;20104;-67
2022/11/01 00:18:21;;;;;;;125.53;39.63;;;;;;;12.10;100.00;100793.91;6002146;28;20034;-67
2022/11/01 00:21:17;;;;;;;128.73;42.93;;;;;;;12.13;100.00;100791.78;6001652;28;20781;-67
2022/11/01 00:24:12;;;;;;;140.50;43.50;;;;;;;12.05;100.00;100777.59;6002011;28;20038;-67
2022/11/01 00:27:07;;;;;;;137.50;43.00;;;;;;;12.02;100.00;100785.88;6002410;28;20471;-67
2022/11/01 00:30:04;;;;;;;132.30;38.72;;;;;;;12.05;100.00;100804.19;6001745;28;20262;-67
2022/11/01 00:32:59;;;;;;;144.35;40.47;;;;;;;11.99;100.00;100796.81;6002140;28;20031;-67
2022/11/01 00:35:59;;;;;;;165.33;43.17;;;;;;;11.89;100.00;100784.47;6001486;28;20534;-67
2022/11/01 00:38:54;;;;;;;172.27;41.78;;;;;;;11.87;100.00;100783.78;6002021;28;20030;-66
2022/11/01 00:41:49;;;;;;;130.67;39.17;;;;;;;11.87;100.00;100781.13;6001224;28;20041;-67
2022/11/01 00:44:45;;;;;;;162.40;42.20;;;;;;;11.92;100.00;100773.53;6001316;28;20069;-67
2022/11/01 00:47:40;;;;;;;164.93;44.27;;;;;;;11.80;100.00;100757.97;6002291;28;20041;-66
2022/11/01 00:50:35;;;;;;;178.90;45.40;;;;;;;11.81;100.00;100764.94;6000893;28;20280;-67
2022/11/01 00:53:31;;;;;;;168.63;46.27;;;;;;;11.83;100.00;100773.59;6001224;28;20546;-67
2022/11/01 00:56:26;;;;;;;156.23;40.20;;;;;;;11.79;100.00;100767.78;6001364;28;20073;-67
2022/11/01 00:59:22;;;;;;;135.90;41.53;;;;;;;11.87;100.00;100775.81;6001250;28;20661;-68
2022/11/01 01:02:17;;;;;;;115.80;37.17;;;;;;;11.81;100.00;100765.78;6000852;28;20281;-68
2022/11/01 01:05:12;;;;;;;151.90;37.63;;;;;;;11.90;100.00;100778.16;6001063;28;20046;-68
2022/11/01 01:08:08;;;;;;;117.93;35.33;;;;;;;11.87;100.00;100775.81;6001087;28;20077;-68
2022/11/01 01:11:03;;;;;;;104.60;37.27;;;;;;;11.82;100.00;100772.75;6000132;28;20386;-68
2022/11/01 01:13:58;;;;;;;91.05;32.63;;;;;;;11.85;100.00;100785.75;6004710;28;20350;-68
2022/11/01 01:16:54;;;;;;;88.13;32.87;;;;;;;11.79;100.00;100766.94;6001172;28;20229;-68
2022/11/01 01:19:49;;;;;;;76.53;27.50;;;;;;;11.79;100.00;100767.78;6000762;28;20463;-67
2022/11/01 01:22:45;;;;;;;74.38;29.77;;;;;;;11.69;100.00;100759.03;5999993;28;20037;-67
2022/11/01 01:25:42;;;;;;;81.35;29.40;;;;;;;11.74;100.00;100759.41;6000439;28;20041;-67
2022/11/01 01:28:37;;;;;;;77.85;29.77;;;;;;;11.57;100.00;100757.56;6000740;28;20062;-68
2022/11/01 01:31:33;;;;;;;72.00;28.02;;;;;;;11.59;100.00;100739.66;6000694;28;20034;-68
2022/11/01 01:34:28;;;;;;;81.27;29.43;;;;;;;11.56;100.00;100739.09;6000516;28;20494;-67
2022/11/01 01:37:24;;;;;;;83.20;29.17;;;;;;;11.48;100.00;100731.06;6000660;28;20069;-67
2022/11/01 01:40:19;;;;;;;81.20;30.02;;;;;;;11.44;100.00;100719.91;6000105;28;20042;-68
2022/11/01 01:43:14;;;;;;;94.87;33.67;;;;;;;11.50;100.00;100729.94;6000106;28;20590;-67
2022/11/01 01:46:10;;;;;;;94.88;31.15;;;;;;;11.47;100.00;100730.22;6000399;28;20035;-67
2022/11/01 01:49:05;;;;;;;92.83;32.20;;;;;;;11.39;100.00;100711.56;6000227;28;20065;-67
2022/11/01 01:52:00;;;;;;;95.97;31.77;;;;;;;11.41;100.00;100714.94;5999820;28;20139;-67
2022/11/01 01:54:58;;;;;;;95.35;33.70;;;;;;;11.41;100.00;100717.59;5998848;28;20026;-68
2022/11/01 01:57:54;;;;;;;79.18;30.10;;;;;;;11.33;100.00;100706.88;5999831;28;20041;-67
2022/11/01 02:00:49;;;;;;;89.10;31.50;;;;;;;11.32;100.00;100694.59;5998774;28;20027;-68
2022/11/01 02:03:45;;;;;;;82.10;29.50;;;;;;;11.33;100.00;100698.91;5998453;28;20034;-68
2022/11/01 02:06:41;;;;;;;82.68;29.00;;;;;;;11.38;100.00;100696.63;6000001;28;20035;-67
2022/11/01 02:09:36;;;;;;;93.03;31.20;;;;;;;11.41;100.00;100692.84;5999979;28;20031;-67
2022/11/01 02:12:35;;;;;;;106.35;35.10;;;;;;;11.39;100.00;100685.00;5998709;28;20309;-67
2022/11/01 02:15:37;;;;;;;88.65;30.65;;;;;;;11.41;100.00;100680.41;5999509;28;20101;-67
2022/11/01 02:18:35;;;;;;;103.10;34.67;;;;;;;11.40;100.00;100680.53;5998525;28;20039;-67
2022/11/01 02:21:55;;;;;;;88.93;32.17;;;;;;;11.43;100.00;100674.94;5998965;28;20209;-67
2022/11/01 02:25:02;;;;;;;104.40;34.97;;;;;;;11.42;100.00;100671.44;5999407;28;20467;-68
2022/11/01 02:28:29;;;;;;;88.72;31.90;;;;;;;11.43;100.00;100670.47;5999324;28;20719;-67
2022/11/01 02:31:44;;;;;;;80.90;30.55;;;;;;;11.46;100.00;100670.16;5999048;28;20050;-68
2022/11/01 02:34:40;;;;;;;102.35;32.55;;;;;;;11.46;100.00;100669.31;5998194;28;20496;-67
2022/11/01 02:37:43;;;;;;;76.57;28.63;;;;;;;11.49;100.00;100669.84;5998918;28;20039;-67
2022/11/01 02:40:56;;;;;;;88.47;30.92;;;;;;;11.48;100.00;100654.91;5997335;28;20023;-67
2022/11/01 02:43:55;;;;;;;87.05;32.78;;;;;;;11.46;100.00;100648.91;5997983;28;20031;-68
2022/11/01 02:47:00;;;;;;;78.05;30.33;;;;;;;11.53;100.00;100649.97;5999198;28;20071;-67
2022/11/01 02:50:00;;;;;;;94.10;33.88;;;;;;;11.44;100.00;100650.88;5997886;28;20419;-67
2022/11/01 02:52:56;;;;;;;100.40;34.25;;;;;;;11.42;100.00;100647.53;5997194;28;20377;-67
2022/11/01 02:55:52;;;;;;;109.88;31.85;;;;;;;11.40;100.00;100648.69;5997557;28;20041;-67
2022/11/01 02:58:49;;;;;;;117.47;36.05;;;;;;;11.42;100.00;100642.22;5998615;28;20387;-67
2022/11/01 03:01:49;;;;;;;117.03;34.65;;;;;;;11.43;100.00;100645.72;5997841;28;20482;-68
2022/11/01 03:04:46;;;;;;;116.38;36.83;;;;;;;11.33;100.00;100632.53;5998843;28;20569;-67
2022/11/01 03:07:44;;;;;;;107.13;33.92;;;;;;;11.36;100.00;100634.88;5997405;28;20044;-68
2022/11/01 03:10:42;;;;;;;122.00;37.75;;;;;;;11.38;100.00;100650.66;5998457;28;20038;-68
2022/11/01 03:14:01;;;;;;;106.75;36.45;;;;;;;11.29;100.00;100631.16;5998641;28;20545;-67
2022/11/01 03:17:05;;;;;;;148.63;42.20;;;;;;;11.24;100.00;100636.09;5998086;28;20039;-67
2022/11/01 03:20:47;;;;;;;123.00;39.50;;;;;;;11.32;100.00;100652.09;5998705;28;20034;-67
2022/11/01 03:23:48;;;;;;;121.10;38.60;;;;;;;11.19;100.00;100630.41;5991945;28;20122;-67
2022/11/01 03:26:50;;;;;;;115.90;37.65;;;;;;;11.22;100.00;100640.75;5998491;28;20034;-67
2022/11/01 03:29:55;;;;;;;113.35;36.75;;;;;;;11.22;100.00;100643.41;5997346;28;20031;-67
2022/11/01 03:32:55;;;;;;;114.32;39.70;;;;;;;11.17;100.00;100619.94;5998830;28;20113;-67
2022/11/01 03:35:53;;;;;;;109.20;38.42;;;;;;;11.23;100.00;100637.91;6003105;28;20486;-67
2022/11/01 03:38:52;;;;;;;109.40;39.88;;;;;;;11.18;100.00;100634.88;6002100;28;20098;-67
2022/11/01 03:41:51;;;;;;;115.40;36.65;;;;;;;11.22;100.00;100635.44;6002470;28;20039;-67
2022/11/01 03:44:51;;;;;;;102.43;37.15;;;;;;;11.22;100.00;100636.25;6001683;28;20109;-67
2022/11/01 03:47:46;;;;;;;114.32;38.92;;;;;;;11.15;100.00;100629.03;6001224;28;20045;-67
2022/11/01 03:50:49;;;;;;;97.30;37.10;;;;;;;11.20;100.00;100634.72;6002512;28;20390;-67
2022/11/01 03:53:44;;;;;;;101.55;36.17;;;;;;;11.15;100.00;100624.56;6002848;28;20341;-67
2022/11/01 03:56:40;;;;;;;94.13;35.10;;;;;;;11.20;100.00;100635.56;6002906;28;20037;-67
2022/11/01 03:59:35;;;;;;;103.33;33.40;;;;;;;11.12;100.00;100613.41;6004743;28;20037;-67
2022/11/01 04:02:30;;;;;;;97.93;37.10;;;;;;;11.19;100.00;100636.56;6001511;28;20081;-66
2022/11/01 04:05:28;;;;;;;92.43;34.10;;;;;;;11.13;100.00;100613.28;6002855;28;20062;-68
2022/11/01 04:08:23;;;;;;;100.78;36.47;;;;;;;11.12;100.00;100618.72;6002500;28;20038;-67
2022/11/01 04:11:19;;;;;;;93.43;34.17;;;;;;;11.18;100.00;100613.66;6001744;28;20034;-67
2022/11/01 04:20:46;;;;;;;90.28;34.70;;;;;;;11.21;100.00;100597.44;5999793;28;20455;-67
2022/11/01 04:23:43;;;;;;;100.05;35.10;;;;;;;11.23;100.00;100599.91;6001804;28;20037;-67
2022/11/01 04:26:38;;;;;;;94.15;34.72;;;;;;;11.18;100.00;100591.59;6002371;28;20034;-67
2022/11/01 04:29:34;;;;;;;94.97;36.97;;;;;;;11.19;100.00;100612.69;6002078;28;20694;-67
2022/11/01 04:32:29;;;;;;;97.40;37.80;;;;;;;11.21;100.00;100586.81;6001524;28;20297;-67
2022/11/01 04:35:24;;;;;;;94.37;34.73;;;;;;;11.23;100.00;100597.25;6001493;28;20062;-67
2022/11/01 04:38:20;;;;;;;100.80;38.60;;;;;;;11.26;100.00;100599.63;6001756;28;20382;-67
2022/11/01 04:41:18;;;;;;;93.32;34.40;;;;;;;11.28;100.00;100587.84;6001537;28;20035;-67
2022/11/01 04:44:14;;;;;;;90.22;32.53;;;;;;;11.32;100.00;100593.69;6001503;28;20054;-68
2022/11/01 04:47:09;;;;;;;87.90;32.07;;;;;;;11.24;100.00;100580.34;6002061;28;20059;-67
2022/11/01 04:50:04;;;;;;;88.87;32.53;;;;;;;11.29;100.00;100600.16;6001324;28;20054;-67
2022/11/01 04:53:00;;;;;;;85.13;33.00;;;;;;;11.24;100.00;100590.97;6000863;28;20027;-67
2022/11/01 04:55:55;;;;;;;79.57;31.73;;;;;;;11.25;100.00;100603.28;6001734;28;20027;-67
2022/11/01 04:58:50;;;;;;;78.97;31.67;;;;;;;11.28;100.00;100597.63;6001324;28;20066;-67
2022/11/01 05:01:46;;;;;;;82.07;32.47;;;;;;;11.35;100.00;100609.31;6001087;28;20085;-67
2022/11/01 05:04:41;;;;;;;73.60;29.17;;;;;;;11.44;100.00;100608.38;6001245;28;20062;-67
2022/11/01 05:07:37;;;;;;;77.97;31.77;;;;;;;11.42;100.00;100610.38;6001239;28;20105;-66
2022/11/01 05:10:33;;;;;;;81.75;29.02;;;;;;;11.53;100.00;100617.25;6000774;28;20042;-67
2022/11/01 05:13:28;;;;;;;69.20;28.35;;;;;;;11.56;100.00;100612.47;6001165;28;20794;-67
2022/11/01 05:16:23;;;;;;;66.33;28.63;;;;;;;11.59;100.00;100619.28;6000696;28;20149;-68
2022/11/01 05:19:19;;;;;;;67.28;26.27;;;;;;;11.60;100.00;100616.50;6000860;28;20037;-67
2022/11/01 05:22:14;;;;;;;55.80;25.17;;;;;;;11.64;100.00;100623.16;5996629;28;20484;-67
2022/11/01 05:25:10;;;;;;;61.13;24.65;;;;;;;11.65;100.00;100631.97;6000650;28;20039;-67
2022/11/01 05:28:11;;;;;;;53.33;24.15;;;;;;;11.65;100.00;100632.81;6000641;28;20030;-66
2022/11/01 05:31:07;;;;;;;52.78;23.35;;;;;;;11.72;100.00;100649.81;6000489;28;20053;-68
2022/11/01 05:34:02;;;;;;;51.33;22.23;;;;;;;11.68;100.00;100640.47;6000825;28;20039;-67
2022/11/01 05:36:58;;;;;;;49.00;22.52;;;;;;;11.67;100.00;100630.81;6000961;28;20039;-66
2022/11/01 05:39:53;;;;;;;51.13;23.53;;;;;;;11.63;100.00;100623.31;6000752;28;20039;-67
2022/11/01 05:42:48;;;;;;;55.05;22.73;;;;;;;11.72;100.00;100643.66;5999467;28;20038;-68
2022/11/01 05:45:44;;;;;;;50.00;21.98;;;;;;;11.67;100.00;100636.13;6000196;28;20046;-67
2022/11/01 05:48:40;;;;;;;53.23;22.63;;;;;;;11.63;100.00;100621.47;6000332;28;20486;-67
2022/11/01 05:51:37;;;;;;;45.92;21.63;;;;;;;11.70;100.00;100645.66;5999401;28;20305;-68
2022/11/01 05:54:32;;;;;;;51.00;21.48;;;;;;;11.75;100.00;100643.34;6000181;28;20109;-66
2022/11/01 05:57:27;;;;;;;45.27;20.33;;;;;;;11.83;100.00;100640.75;5999535;28;20471;-67
2022/11/01 06:00:23;;;;;;;44.00;19.00;;;;;;;11.91;100.00;100651.44;5999365;28;20030;-69
2022/11/01 06:03:18;;;;;;;43.43;18.43;;;;;;;12.01;100.00;100651.34;5999958;28;20026;-67
2022/11/01 06:06:14;;;;;;;34.47;16.77;;;;;;;12.19;100.00;100658.25;5999720;28;20071;-68
2022/11/01 06:09:09;;;;;;;34.30;14.75;;;;;;;12.37;100.00;100660.81;5999758;28;20088;-68
2022/11/01 06:12:05;;;;;;;28.58;13.15;;;;;;;12.52;100.00;100661.91;5999169;28;20037;-67
2022/11/01 06:15:00;;;;;;;30.70;14.32;;;;;;;12.63;100.00;100652.81;5999956;28;20035;-67
2022/11/01 06:17:57;;;;;;;28.23;12.73;;;;;;;12.73;100.00;100654.34;5999504;28;20035;-68
2022/11/01 06:20:52;;;;;;;28.85;12.07;;;;;;;12.81;100.00;100665.00;5999461;28;20039;-68
2022/11/01 06:23:49;;;;;;;26.17;11.60;;;;;;;12.89;100.00;100657.06;5999883;28;20097;-68
2022/11/01 06:26:44;;;;;;;22.13;10.35;;;;;;;12.97;100.00;100654.41;5999305;28;20062;-69
2022/11/01 06:29:40;;;;;;;23.33;11.55;;;;;;;13.13;100.00;100658.16;5999256;28;20395;-70
2022/11/01 06:32:35;;;;;;;23.60;10.80;;;;;;;13.16;100.00;100650.66;5998824;28;20058;-69
2022/11/01 06:35:31;;;;;;;21.57;10.33;;;;;;;13.28;100.00;100662.66;5983689;28;20027;-67
2022/11/01 06:38:27;;;;;;;28.38;10.25;;;;;;;13.37;100.00;100666.97;5994126;28;20042;-67
2022/11/01 06:41:22;;;;;;;21.17;9.97;;;;;;;13.51;100.00;100673.47;5999367;28;20438;-66
2022/11/01 06:44:17;;;;;;;24.33;9.93;;;;;;;13.50;100.00;100662.03;6000703;28;20483;-67
2022/11/01 06:47:13;;;;;;;21.02;9.27;;;;;;;13.62;100.00;100667.81;5999100;28;20161;-67
2022/11/01 06:50:08;;;;;;;17.50;8.30;;;;;;;13.83;100.00;100686.84;5997016;28;20038;-67
2022/11/01 06:53:04;;;;;;;24.25;8.88;;;;;;;13.95;100.00;100684.63;5996816;28;20146;-66
2022/11/01 06:56:00;;;;;;;21.67;7.55;;;;;;;13.99;100.00;100681.50;5998694;28;20043;-67
2022/11/01 06:58:55;;;;;;;16.70;8.30;;;;;;;14.18;98.97;100699.78;5998861;28;20046;-66
2022/11/01 07:01:53;;;;;;;17.63;7.20;;;;;;;14.27;98.09;100704.09;5997713;28;20127;-66
2022/11/01 07:04:49;;;;;;;15.20;6.70;;;;;;;14.26;97.55;100705.09;5998637;28;20829;-67
2022/11/01 07:07:44;;;;;;;14.83;7.23;;;;;;;14.29;97.17;100696.75;5997550;28;20031;-65
2022/11/01 07:10:41;;;;;;;17.48;6.97;;;;;;;14.36;96.65;100696.09;5998198;28;20043;-67
2022/11/01 07:13:37;;;;;;;17.85;6.15;;;;;;;14.42;96.20;100700.75;5998453;28;20031;-67
2022/11/01 07:16:32;;;;;;;15.48;6.82;;;;;;;14.39;96.21;100696.59;5998137;28;20667;-67
2022/11/01 07:19:27;;;;;;;14.50;7.07;;;;;;;14.54;95.69;100710.06;5996427;28;20382;-67
2022/11/01 07:22:23;;;;;;;14.47;6.43;;;;;;;14.62;95.38;100715.38;5992709;28;20091;-67
2022/11/01 07:25:18;;;;;;;12.75;6.18;;;;;;;14.73;95.07;100721.16;5997696;28;20023;-67
2022/11/01 07:28:13;;;;;;;14.50;6.17;;;;;;;14.79;94.59;100728.50;5998585;28;20779;-67
2022/11/01 07:31:09;;;;;;;12.93;5.70;;;;;;;14.86;93.98;100717.97;5997627;28;20095;-67
2022/11/01 07:34:04;;;;;;;17.77;7.33;;;;;;;14.83;93.82;100731.66;5998828;28;20043;-67
2022/11/01 07:37:00;;;;;;;12.75;5.70;;;;;;;14.85;93.45;100741.16;5997615;28;20038;-67
2022/11/01 07:39:55;;;;;;;16.27;5.83;;;;;;;14.86;93.35;100742.81;5997865;28;20418;-66
2022/11/01 07:42:50;;;;;;;13.30;5.27;;;;;;;14.83;93.20;100737.00;5987967;28;20083;-66
2022/11/01 07:45:46;;;;;;;16.07;5.80;;;;;;;14.83;92.61;100731.66;5994495;28;20027;-67
2022/11/01 07:48:41;;;;;;;14.10;4.50;;;;;;;14.96;92.60;100742.59;5990339;28;20038;-67
2022/11/01 07:51:36;;;;;;;14.47;5.40;;;;;;;14.97;92.20;100733.59;5994114;28;20189;-67
2022/11/01 07:54:32;;;;;;;12.40;5.20;;;;;;;15.01;92.14;100739.41;5994690;28;20290;-67
2022/11/01 07:57:27;;;;;;;12.47;4.53;;;;;;;15.06;91.71;100745.88;5998461;28;20286;-67
2022/11/01 08:00:23;;;;;;;17.80;5.37;;;;;;;15.12;90.92;100742.53;5997234;28;20122;-69
2022/11/01 08:03:19;;;;;;;13.88;5.13;;;;;;;15.13;90.47;100733.53;5998272;28;20089;-68
2022/11/01 08:06:14;;;;;;;10.02;4.63;;;;;;;15.28;90.67;100741.59;5994857;28;20027;-68
2022/11/01 08:09:09;;;;;;;11.18;5.32;;;;;;;15.32;90.45;100748.28;5998444;28;20030;-66
2022/11/01 08:12:05;;;;;;;9.83;4.93;;;;;;;15.39;90.76;100749.22;5997744;28;20494;-66
2022/11/01 08:15:01;;;;;;;11.00;4.75;;;;;;;15.39;90.19;100744.72;5998046;28;20125;-69
2022/11/01 08:17:57;;;;;;;11.88;5.10;;;;;;;15.48;89.93;100749.03;5998605;28;20034;-69
2022/11/01 08:20:52;;;;;;;12.38;4.78;;;;;;;15.37;89.56;100746.75;6001688;28;20031;-69
2022/11/01 08:23:48;;;;;;;13.13;5.20;;;;;;;15.59;89.10;100771.03;6002395;28;20047;-66
2022/11/01 08:26:43;;;;;;;11.50;4.88;;;;;;;15.56;89.07;100758.00;6002559;28;21034;-69
2022/11/01 08:29:39;;;;;;;13.48;5.18;;;;;;;15.67;88.66;100768.28;6001922;28;20506;-66
2022/11/01 08:32:34;;;;;;;12.45;5.05;;;;;;;15.78;87.49;100755.34;6001739;28;20035;-66
2022/11/01 08:35:30;;;;;;;11.97;4.77;;;;;;;15.89;87.78;100764.81;6001772;28;20067;-66
2022/11/01 08:38:26;;;;;;;12.57;4.40;;;;;;;15.81;87.52;100760.34;6002331;28;20118;-67
2022/11/01 08:41:22;;;;;;;10.57;4.25;;;;;;;15.88;88.46;100771.16;6001638;28;20039;-66
2022/11/01 08:44:18;;;;;;;10.27;4.22;;;;;;;15.79;87.32;100772.25;6002243;28;20632;-66
2022/11/01 08:47:13;;;;;;;9.43;4.25;;;;;;;15.68;88.17;100772.66;6002059;28;20041;-66
2022/11/01 08:50:11;;;;;;;12.37;4.03;;;;;;;15.79;87.39;100772.25;6000654;28;20023;-66
2022/11/01 08:53:09;;;;;;;9.88;3.88;;;;;;;15.83;86.65;100770.84;6001470;28;20781;-68
2022/11/01 08:56:04;;;;;;;9.40;3.88;;;;;;;15.88;86.99;100784.50;6001013;28;20035;-68
2022/11/01 08:59:00;;;;;;;11.52;4.43;;;;;;;15.87;87.18;100791.72;6001586;28;20066;-69
2022/11/01 09:01:55;;;;;;;7.32;3.95;;;;;;;15.94;87.00;100791.84;6000688;28;20034;-68
2022/11/01 09:04:50;;;;;;;9.30;4.10;;;;;;;15.96;86.84;100801.34;6001228;28;20534;-67
2022/11/01 09:07:46;;;;;;;12.20;4.33;;;;;;;15.99;85.93;100784.94;5999120;28;20438;-65
2022/11/01 09:10:41;;;;;;;14.27;4.90;;;;;;;16.02;86.11;100783.75;6000649;28;20383;-65
2022/11/01 09:13:36;;;;;;;12.07;4.13;;;;;;;16.15;85.63;100786.63;6001361;28;20573;-66
2022/11/01 09:16:32;;;;;;;9.17;4.43;;;;;;;16.11;85.70;100768.47;6000207;28;20675;-68
2022/11/01 09:19:27;;;;;;;9.97;3.57;;;;;;;16.11;85.38;100771.13;6001066;28;20019;-68
2022/11/01 09:22:22;;;;;;;8.20;3.37;;;;;;;16.12;85.45;100765.59;6000145;28;20051;-68
2022/11/01 09:25:18;;;;;;;10.70;4.40;;;;;;;16.12;85.49;100773.63;6001088;28;20479;-68
2022/11/01 09:28:13;;;;;;;8.93;3.90;;;;;;;16.15;85.70;100783.13;6004067;28;20270;-68
2022/11/01 09:31:10;;;;;;;14.17;4.07;;;;;;;16.33;85.33;100792.53;5999862;28;20254;-66
2022/11/01 09:34:05;;;;;;;10.50;3.45;;;;;;;16.54;84.60;100795.34;5999250;28;20321;-67
2022/11/01 09:37:00;;;;;;;11.17;4.33;;;;;;;16.71;83.64;100789.84;6000935;28;20038;-67
2022/11/01 09:39:56;;;;;;;12.33;4.03;;;;;;;16.86;83.33;100793.34;6000531;28;20026;-66
2022/11/01 09:42:54;;;;;;;10.73;4.25;;;;;;;16.96;82.47;100796.59;5999820;28;20038;-69
2022/11/01 09:45:57;;;;;;;10.50;4.20;;;;;;;17.16;81.30;100789.63;5999246;28;20439;-68
2022/11/01 09:48:54;;;;;;;9.85;4.05;;;;;;;17.35;80.35;100802.44;6000504;28;20434;-68
2022/11/01 09:51:50;;;;;;;10.82;3.75;;;;;;;17.54;80.67;100815.28;5997732;28;20110;-68
2022/11/01 09:54:46;;;;;;;10.65;4.10;;;;;;;17.54;79.80;100814.47;6000537;28;20053;-67
2022/11/01 09:57:58;;;;;;;10.00;4.47;;;;;;;17.36;80.34;100814.84;5998909;28;20385;-66
2022/11/01 10:01:16;;;;;;;6.65;3.65;;;;;;;17.66;79.92;100824.53;5992785;28;20027;-67
2022/11/01 10:04:26;;;;;;;10.77;3.58;;;;;;;17.58;79.84;100831.84;5988189;28;20057;-66
2022/11/01 10:07:27;;;;;;;7.68;3.60;;;;;;;17.53;79.77;100837.75;5999884;28;20038;-66
2022/11/01 10:10:49;;;;;;;11.02;3.47;;;;;;;17.43;80.52;100834.50;5999468;28;20047;-67
2022/11/01 10:13:47;;;;;;;8.38;3.67;;;;;;;17.45;79.42;100832.47;5982245;28;20118;-66
2022/11/01 10:17:08;;;;;;;10.68;3.22;;;;;;;17.34;78.80;100827.59;5999949;28;20034;-66
2022/11/01 10:20:04;;;;;;;7.95;2.83;;;;;;;17.36;78.72;100848.88;5998995;28;20043;-66
2022/11/01 10:23:00;;;;;;;11.45;3.00;;;;;;;17.32;79.09;100858.28;5999742;28;20451;-67
2022/11/01 10:25:55;;;;;;;4.63;2.20;;;;;;;17.32;75.26;100861.81;5999465;28;20073;-65
2022/11/01 10:29:00;;;;;;;5.60;1.88;;;;;;;17.32;74.54;100856.44;5999724;28;20157;-65
2022/11/01 10:31:55;;;;;;;5.03;2.10;;;;;;;17.26;74.49;100833.03;5997064;28;20039;-68
2022/11/01 10:34:52;;;;;;;3.63;1.83;;;;;;;17.38;74.18;100853.03;5999725;28;20037;-66
2022/11/01 10:37:53;;;;;;;5.18;2.42;;;;;;;17.31;73.15;100856.63;5998091;28;20115;-66
2022/11/01 10:40:53;;;;;;;5.25;2.33;;;;;;;17.31;73.94;100873.56;5997521;28;20031;-67
2022/11/01 10:43:52;;;;;;;6.53;2.60;;;;;;;17.25;74.52;100863.56;5999526;28;20027;-66
2022/11/01 10:46:48;;;;;;;4.55;2.25;;;;;;;17.29;75.14;100880.94;5998900;28;20054;-67
2022/11/01 10:49:58;;;;;;;4.93;2.38;;;;;;;17.31;74.86;100870.88;5999005;28;20546;-66
2022/11/01 10:52:58;;;;;;;6.63;2.05;;;;;;;17.45;73.45;100869.22;5997183;28;20045;-66
2022/11/01 10:55:57;;;;;;;8.75;2.40;;;;;;;17.52;72.54;100876.31;5999043;28;20113;-67
2022/11/01 10:59:00;;;;;;;8.30;2.70;;;;;;;17.73;72.33;100872.88;5997883;28;20037;-67
2022/11/01 11:01:56;;;;;;;4.40;2.50;;;;;;;17.71;71.51;100866.88;5998774;28;20035;-69
2022/11/01 11:04:52;;;;;;;6.47;2.50;;;;;;;17.68;71.59;100878.81;5997895;28;20462;-68
2022/11/01 11:07:47;;;;;;;6.53;2.40;;;;;;;17.76;71.07;100875.19;5997211;28;20061;-69
2022/11/01 11:10:44;;;;;;;7.67;2.70;;;;;;;17.69;70.95;100866.22;5998554;28;20039;-68
2022/11/01 11:13:41;;;;;;;6.97;2.70;;;;;;;17.61;71.01;100851.06;5997445;28;20270;-68
2022/11/01 11:16:48;;;;;;;6.97;2.65;;;;;;;17.52;71.78;100864.75;5997687;28;20022;-69
2022/11/01 11:19:44;;;;;;;6.40;2.75;;;;;;;17.64;71.18;100864.09;5998506;28;20042;-69
2022/11/01 11:22:41;;;;;;;5.00;2.42;;;;;;;17.77;70.29;100869.59;5997808;28;20039;-69
2022/11/01 11:25:37;;;;;;;5.18;2.47;;;;;;;18.02;70.28;100871.97;5999032;28;20031;-70
2022/11/01 11:28:34;;;;;;;8.93;2.17;;;;;;;18.04;69.06;100875.28;5997538;28;20069;-68
2022/11/01 11:31:32;;;;;;;7.53;2.40;;;;;;;18.09;68.51;100895.19;5998405;28;20039;-69
2022/11/01 11:34:31;;;;;;;10.52;2.50;;;;;;;17.78;70.54;100900.78;5998380;28;20590;-68
2022/11/01 11:37:32;;;;;;;6.13;2.25;;;;;;;17.32;71.27;100920.78;5996349;28;20473;-68
2022/11/01 11:40:39;;;;;;;5.18;2.10;;;;;;;17.15;70.53;100916.59;5996856;28;20081;-69
2022/11/01 11:43:39;;;;;;;4.38;2.20;;;;;;;17.08;70.36;100921.03;5998439;28;20042;-69
2022/11/01 11:46:35;;;;;;;6.63;1.90;;;;;;;16.95;70.42;100916.31;5995649;28;20041;-69
2022/11/01 11:49:31;;;;;;;6.90;2.03;;;;;;;16.95;70.69;100910.97;5998261;28;20035;-69
2022/11/01 11:52:31;;;;;;;5.25;1.92;;;;;;;17.03;69.52;100921.59;5998038;28;20031;-69
2022/11/01 11:55:38;;;;;;;3.42;1.83;;;;;;;17.13;67.90;100924.00;6001613;28;20442;-69
2022/11/01 11:58:36;;;;;;;4.80;2.10;;;;;;;17.16;67.85;100934.34;6002741;28;20667;-68
2022/11/01 12:01:33;;;;;;;4.45;2.00;;;;;;;17.03;67.57;100924.28;5998000;28;20046;-69
2022/11/01 12:04:44;;;;;;;5.60;1.90;;;;;;;17.10;62.76;100924.38;6002281;28;20040;-69
2022/11/01 12:07:51;;;;;;;4.07;1.33;;;;;;;17.05;60.81;100911.53;6000863;28;20114;-69
2022/11/01 12:10:46;;;;;;;4.47;1.30;;;;;;;17.01;58.34;100923.59;6004226;28;20034;-68
2022/11/01 12:13:44;;;;;;;4.57;1.50;;;;;;;17.04;58.71;100941.19;6001082;28;20394;-69
2022/11/01 12:16:40;;;;;;;3.13;1.20;;;;;;;17.01;56.92;100949.59;6001944;28;20329;-68
2022/11/01 12:19:36;;;;;;;5.97;0.98;;;;;;;16.98;56.01;100945.44;6002635;28;20046;-69
2022/11/01 12:22:33;;;;;;;4.13;1.20;;;;;;;17.03;55.75;100951.06;6001609;28;20131;-69
2022/11/01 12:25:29;;;;;;;6.72;1.27;;;;;;;16.97;55.85;100959.84;5995567;28;20305;-69
2022/11/01 12:28:30;;;;;;;3.43;1.27;;;;;;;16.96;54.57;100960.03;5985031;28;20051;-68
2022/11/01 12:31:26;;;;;;;2.72;1.10;;;;;;;16.94;54.72;100962.88;6000823;28;20533;-68
2022/11/01 12:34:25;;;;;;;2.67;1.20;;;;;;;16.94;54.51;100962.88;5999998;28;20066;-69
2022/11/01 12:37:35;;;;;;;4.28;1.10;;;;;;;17.02;54.68;100964.63;5999635;28;20041;-68
2022/11/01 12:40:36;;;;;;;5.75;1.15;;;;;;;17.04;54.42;100951.91;6001200;28;20053;-70
2022/11/01 12:43:56;;;;;;;3.33;1.00;;;;;;;17.07;55.36;100981.00;5999627;28;20479;-69
2022/11/01 12:46:59;;;;;;;5.28;0.93;;;;;;;17.02;51.29;100975.34;5989492;28;20470;-69
2022/11/01 12:50:06;;;;;;;2.17;0.77;;;;;;;16.90;50.03;100976.81;6000274;28;20123;-69
2022/11/01 12:53:09;;;;;;;3.72;0.75;;;;;;;16.96;50.34;100981.47;6000121;28;20474;-68
2022/11/01 12:56:05;;;;;;;5.10;0.90;;;;;;;16.87;49.21;100967.28;6001515;28;20039;-69
2022/11/01 12:59:00;;;;;;;3.70;1.02;;;;;;;16.91;49.02;100973.09;6001313;28;20046;-69
2022/11/01 13:02:27;;;;;;;3.47;0.70;;;;;;;16.89;47.98;100975.13;6000838;28;20031;-68
2022/11/01 13:05:46;;;;;;;5.03;1.05;;;;;;;16.81;48.22;100965.34;5997786;28;20340;-69
2022/11/01 13:08:55;;;;;;;2.17;0.60;;;;;;;16.92;48.92;100982.81;5999762;28;20043;-69
2022/11/01 13:11:53;;;;;;;5.63;0.98;;;;;;;16.86;49.27;100987.06;6000895;28;20458;-69
2022/11/01 13:15:08;;;;;;;4.57;0.90;;;;;;;16.80;49.13;100986.94;6000651;28;20035;-68
2022/11/01 13:18:11;;;;;;;6.05;0.90;;;;;;;16.72;49.81;101003.91;6001272;28;20066;-69
2022/11/01 13:21:12;;;;;;;4.10;0.68;;;;;;;16.73;50.23;101002.91;5998917;28;20035;-69
2022/11/01 13:24:54;;;;;;;4.65;0.63;;;;;;;16.66;51.20;100986.69;6000996;28;20113;-69
2022/11/01 13:28:16;;;;;;;5.50;0.95;;;;;;;16.64;50.85;100985.22;5999468;28;20459;-69
2022/11/01 13:31:43;;;;;;;5.18;0.80;;;;;;;16.67;50.48;101004.44;6000280;28;20136;-69
2022/11/01 13:34:54;;;;;;;4.78;1.23;;;;;;;16.52;51.95;100995.47;6000027;28;20042;-68
2022/11/01 13:37:58;;;;;;;6.75;1.00;;;;;;;16.52;50.69;101003.50;6000486;28;20073;-68